< < Back
Terminal Aerodrome Forecast


Current Version              Previous Versions:   1  2  3  4  5  6  7  8  9  

Terminal Aerodrome Forecast

136
FTUS42 KGSP 290557 CCB
TAFHKY
TAF COR
KHKY 290557Z 2906/3006 00000KT 2SM BR OVC150
     FM290700 35003KT 3SM BR OVC160
      TEMPO 2907/2911 1SM BR
     FM291400 33003KT P6SM BKN045
     FM291800 17006KT P6SM BKN070 PROB30 2918/2920 4SM TSRA BKN040CB
     FM292300 17004KT P6SM BKN045=

Latest METAR

070
SAUS70 KWBC 291200
MTRHKY
METAR KHKY 291153Z 31003KT 5SM BR OVC002 18/18 A3026 RMK AO2 SLP230
70110 T01830178 10189 20178 51018


USA.gov is the U.S. government's official web portal to all federal, state and local government web resources and services.